sensor_id;sensor_type;location;lat;lon;timestamp;P1;durP1;ratioP1;P2;durP2;ratioP2
76599;SDS011;65489;52.048;6.090;2023-02-01T00:01:45;1.35;;;0.50;;
76599;SDS011;65489;52.048;6.090;2023-02-01T00:04:11;1.05;;;0.50;;
76599;SDS011;65489;52.048;6.090;2023-02-01T00:06:37;1.02;;;0.55;;
76599;SDS011;65489;52.048;6.090;2023-02-01T00:09:02;1.35;;;0.40;;
76599;SDS011;65489;52.048;6.090;2023-02-01T00:11:28;1.83;;;0.60;;
76599;SDS011;65489;52.048;6.090;2023-02-01T00:13:53;2.15;;;0.77;;
76599;SDS011;65489;52.048;6.090;2023-02-01T00:16:20;1.98;;;0.68;;
76599;SDS011;65489;52.048;6.090;2023-02-01T00:18:51;1.30;;;0.40;;
76599;SDS011;65489;52.048;6.090;2023-02-01T00:21:18;2.30;;;0.60;;
76599;SDS011;65489;52.048;6.090;2023-02-01T00:23:45;2.10;;;0.70;;
76599;SDS011;65489;52.048;6.090;2023-02-01T00:26:12;1.17;;;0.60;;
76599;SDS011;65489;52.048;6.090;2023-02-01T00:28:40;1.73;;;0.65;;
76599;SDS011;65489;52.048;6.090;2023-02-01T00:31:06;1.27;;;0.50;;
76599;SDS011;65489;52.048;6.090;2023-02-01T00:33:32;2.00;;;0.80;;
76599;SDS011;65489;52.048;6.090;2023-02-01T00:36:02;2.90;;;0.77;;
76599;SDS011;65489;52.048;6.090;2023-02-01T00:38:29;1.73;;;0.70;;
76599;SDS011;65489;52.048;6.090;2023-02-01T00:41:05;1.92;;;0.60;;
76599;SDS011;65489;52.048;6.090;2023-02-01T00:43:34;1.98;;;0.60;;
76599;SDS011;65489;52.048;6.090;2023-02-01T00:45:59;1.17;;;0.60;;
76599;SDS011;65489;52.048;6.090;2023-02-01T00:48:25;2.88;;;0.60;;
76599;SDS011;65489;52.048;6.090;2023-02-01T00:50:51;1.85;;;0.50;;
76599;SDS011;65489;52.048;6.090;2023-02-01T00:53:17;1.48;;;0.70;;
76599;SDS011;65489;52.048;6.090;2023-02-01T00:55:46;1.60;;;0.60;;
76599;SDS011;65489;52.048;6.090;2023-02-01T00:58:11;1.65;;;0.50;;
76599;SDS011;65489;52.048;6.090;2023-02-01T01:00:37;2.17;;;0.63;;
76599;SDS011;65489;52.048;6.090;2023-02-01T01:03:03;2.25;;;0.70;;
76599;SDS011;65489;52.048;6.090;2023-02-01T01:05:43;1.85;;;0.50;;
76599;SDS011;65489;52.048;6.090;2023-02-01T01:08:12;1.42;;;0.60;;
76599;SDS011;65489;52.048;6.090;2023-02-01T01:10:38;1.88;;;0.50;;
76599;SDS011;65489;52.048;6.090;2023-02-01T01:13:04;2.03;;;0.60;;
76599;SDS011;65489;52.048;6.090;2023-02-01T01:15:30;1.35;;;0.55;;
76599;SDS011;65489;52.048;6.090;2023-02-01T01:17:55;1.85;;;0.50;;
76599;SDS011;65489;52.048;6.090;2023-02-01T01:20:21;1.38;;;0.57;;
76599;SDS011;65489;52.048;6.090;2023-02-01T01:22:47;1.58;;;0.55;;
76599;SDS011;65489;52.048;6.090;2023-02-01T01:25:13;2.05;;;0.63;;
76599;SDS011;65489;52.048;6.090;2023-02-01T01:27:39;1.50;;;0.60;;
76599;SDS011;65489;52.048;6.090;2023-02-01T01:30:05;1.70;;;0.80;;
76599;SDS011;65489;52.048;6.090;2023-02-01T01:32:30;1.58;;;0.60;;
76599;SDS011;65489;52.048;6.090;2023-02-01T01:34:56;2.42;;;0.65;;
76599;SDS011;65489;52.048;6.090;2023-02-01T01:37:22;2.17;;;0.65;;
76599;SDS011;65489;52.048;6.090;2023-02-01T01:39:47;2.15;;;0.45;;
76599;SDS011;65489;52.048;6.090;2023-02-01T01:42:13;1.40;;;0.60;;
76599;SDS011;65489;52.048;6.090;2023-02-01T01:47:31;2.22;;;0.63;;
76599;SDS011;65489;52.048;6.090;2023-02-01T01:50:09;1.73;;;0.60;;
76599;SDS011;65489;52.048;6.090;2023-02-01T01:52:36;1.88;;;0.60;;
76599;SDS011;65489;52.048;6.090;2023-02-01T01:55:02;2.05;;;0.65;;
76599;SDS011;65489;52.048;6.090;2023-02-01T01:57:30;2.58;;;0.80;;
76599;SDS011;65489;52.048;6.090;2023-02-01T02:00:08;2.47;;;0.55;;
76599;SDS011;65489;52.048;6.090;2023-02-01T02:02:39;2.17;;;0.60;;
76599;SDS011;65489;52.048;6.090;2023-02-01T02:05:06;2.80;;;0.65;;
76599;SDS011;65489;52.048;6.090;2023-02-01T02:07:33;2.05;;;0.50;;
76599;SDS011;65489;52.048;6.090;2023-02-01T02:10:03;1.08;;;0.50;;
76599;SDS011;65489;52.048;6.090;2023-02-01T02:12:31;1.67;;;0.60;;
76599;SDS011;65489;52.048;6.090;2023-02-01T02:14:56;1.38;;;0.52;;
76599;SDS011;65489;52.048;6.090;2023-02-01T02:34:44;1.48;;;0.52;;
76599;SDS011;65489;52.048;6.090;2023-02-01T02:38:02;2.53;;;0.75;;
76599;SDS011;65489;52.048;6.090;2023-02-01T02:43:08;2.78;;;0.70;;
76599;SDS011;65489;52.048;6.090;2023-02-01T02:49:12;1.30;;;0.60;;
76599;SDS011;65489;52.048;6.090;2023-02-01T02:51:49;2.17;;;0.60;;
76599;SDS011;65489;52.048;6.090;2023-02-01T02:54:38;1.63;;;0.73;;
76599;SDS011;65489;52.048;6.090;2023-02-01T03:00:02;1.58;;;0.60;;
76599;SDS011;65489;52.048;6.090;2023-02-01T03:02:49;1.75;;;0.57;;
76599;SDS011;65489;52.048;6.090;2023-02-01T03:05:34;1.42;;;0.50;;
76599;SDS011;65489;52.048;6.090;2023-02-01T03:10:37;1.95;;;0.63;;
76599;SDS011;65489;52.048;6.090;2023-02-01T03:13:10;2.00;;;0.55;;
76599;SDS011;65489;52.048;6.090;2023-02-01T03:15:42;0.95;;;0.50;;
76599;SDS011;65489;52.048;6.090;2023-02-01T03:18:20;2.08;;;0.50;;
76599;SDS011;65489;52.048;6.090;2023-02-01T03:20:51;1.00;;;0.60;;
76599;SDS011;65489;52.048;6.090;2023-02-01T03:23:19;2.88;;;0.80;;
76599;SDS011;65489;52.048;6.090;2023-02-01T03:25:48;1.35;;;0.43;;
76599;SDS011;65489;52.048;6.090;2023-02-01T03:28:15;2.78;;;0.60;;
76599;SDS011;65489;52.048;6.090;2023-02-01T03:30:45;1.27;;;0.50;;
76599;SDS011;65489;52.048;6.090;2023-02-01T03:33:15;1.88;;;0.60;;
76599;SDS011;65489;52.048;6.090;2023-02-01T03:38:23;2.72;;;0.60;;
76599;SDS011;65489;52.048;6.090;2023-02-01T03:43:57;1.75;;;0.63;;
76599;SDS011;65489;52.048;6.090;2023-02-01T03:46:39;2.03;;;0.80;;
76599;SDS011;65489;52.048;6.090;2023-02-01T03:49:08;1.05;;;0.47;;
76599;SDS011;65489;52.048;6.090;2023-02-01T03:51:37;2.70;;;0.63;;
76599;SDS011;65489;52.048;6.090;2023-02-01T03:54:04;1.08;;;0.60;;
76599;SDS011;65489;52.048;6.090;2023-02-01T03:56:30;1.00;;;0.50;;
76599;SDS011;65489;52.048;6.090;2023-02-01T03:58:57;1.98;;;0.68;;
76599;SDS011;65489;52.048;6.090;2023-02-01T04:01:29;1.13;;;0.45;;
76599;SDS011;65489;52.048;6.090;2023-02-01T04:03:56;2.38;;;0.70;;
76599;SDS011;65489;52.048;6.090;2023-02-01T04:06:23;2.15;;;0.60;;
76599;SDS011;65489;52.048;6.090;2023-02-01T04:08:49;1.30;;;0.47;;
76599;SDS011;65489;52.048;6.090;2023-02-01T04:11:15;1.95;;;0.60;;
76599;SDS011;65489;52.048;6.090;2023-02-01T04:13:40;2.70;;;0.70;;
76599;SDS011;65489;52.048;6.090;2023-02-01T04:16:05;3.20;;;0.60;;
76599;SDS011;65489;52.048;6.090;2023-02-01T04:18:31;1.67;;;0.60;;
76599;SDS011;65489;52.048;6.090;2023-02-01T04:20:56;2.40;;;0.70;;
76599;SDS011;65489;52.048;6.090;2023-02-01T04:23:22;2.47;;;0.60;;
76599;SDS011;65489;52.048;6.090;2023-02-01T04:25:47;1.85;;;0.75;;
76599;SDS011;65489;52.048;6.090;2023-02-01T04:28:13;2.38;;;0.80;;
76599;SDS011;65489;52.048;6.090;2023-02-01T04:30:38;1.58;;;0.68;;
76599;SDS011;65489;52.048;6.090;2023-02-01T04:33:04;2.20;;;0.60;;
76599;SDS011;65489;52.048;6.090;2023-02-01T04:35:32;1.20;;;0.50;;
76599;SDS011;65489;52.048;6.090;2023-02-01T04:37:58;2.33;;;0.50;;
76599;SDS011;65489;52.048;6.090;2023-02-01T04:40:24;2.00;;;0.40;;
76599;SDS011;65489;52.048;6.090;2023-02-01T04:42:49;2.03;;;0.70;;
76599;SDS011;65489;52.048;6.090;2023-02-01T04:45:15;2.38;;;0.68;;
76599;SDS011;65489;52.048;6.090;2023-02-01T04:47:40;1.75;;;0.75;;
76599;SDS011;65489;52.048;6.090;2023-02-01T04:50:06;1.65;;;0.47;;
76599;SDS011;65489;52.048;6.090;2023-02-01T04:52:33;2.25;;;0.50;;
76599;SDS011;65489;52.048;6.090;2023-02-01T04:54:58;3.80;;;0.70;;
76599;SDS011;65489;52.048;6.090;2023-02-01T04:57:25;1.83;;;0.50;;
76599;SDS011;65489;52.048;6.090;2023-02-01T04:59:51;2.83;;;0.75;;
76599;SDS011;65489;52.048;6.090;2023-02-01T05:02:16;2.25;;;0.65;;
76599;SDS011;65489;52.048;6.090;2023-02-01T05:04:41;1.75;;;0.52;;
76599;SDS011;65489;52.048;6.090;2023-02-01T05:07:07;1.58;;;0.60;;
76599;SDS011;65489;52.048;6.090;2023-02-01T05:09:32;1.70;;;0.65;;
76599;SDS011;65489;52.048;6.090;2023-02-01T05:11:58;2.25;;;0.70;;
76599;SDS011;65489;52.048;6.090;2023-02-01T05:14:42;1.92;;;0.60;;
76599;SDS011;65489;52.048;6.090;2023-02-01T05:17:07;1.75;;;0.68;;
76599;SDS011;65489;52.048;6.090;2023-02-01T05:19:33;2.88;;;0.73;;
76599;SDS011;65489;52.048;6.090;2023-02-01T05:21:58;2.20;;;0.90;;
76599;SDS011;65489;52.048;6.090;2023-02-01T05:24:24;1.55;;;0.70;;
76599;SDS011;65489;52.048;6.090;2023-02-01T05:26:49;1.80;;;0.70;;
76599;SDS011;65489;52.048;6.090;2023-02-01T05:29:15;2.95;;;0.60;;
76599;SDS011;65489;52.048;6.090;2023-02-01T05:31:41;1.00;;;0.50;;
76599;SDS011;65489;52.048;6.090;2023-02-01T05:34:09;3.10;;;0.63;;
76599;SDS011;65489;52.048;6.090;2023-02-01T05:36:34;1.83;;;0.60;;
76599;SDS011;65489;52.048;6.090;2023-02-01T05:39:00;1.48;;;0.55;;
76599;SDS011;65489;52.048;6.090;2023-02-01T05:41:25;1.50;;;0.57;;
76599;SDS011;65489;52.048;6.090;2023-02-01T05:43:51;1.95;;;0.70;;
76599;SDS011;65489;52.048;6.090;2023-02-01T05:46:16;3.28;;;0.73;;
76599;SDS011;65489;52.048;6.090;2023-02-01T05:48:42;2.63;;;0.70;;
76599;SDS011;65489;52.048;6.090;2023-02-01T05:51:08;1.30;;;0.50;;
76599;SDS011;65489;52.048;6.090;2023-02-01T05:53:34;2.75;;;1.00;;
76599;SDS011;65489;52.048;6.090;2023-02-01T05:56:00;1.63;;;0.65;;
76599;SDS011;65489;52.048;6.090;2023-02-01T05:58:25;1.58;;;0.60;;
76599;SDS011;65489;52.048;6.090;2023-02-01T06:00:51;2.88;;;0.70;;
76599;SDS011;65489;52.048;6.090;2023-02-01T06:03:16;2.38;;;0.70;;
76599;SDS011;65489;52.048;6.090;2023-02-01T06:05:46;1.75;;;0.80;;
76599;SDS011;65489;52.048;6.090;2023-02-01T06:08:12;1.45;;;0.55;;
76599;SDS011;65489;52.048;6.090;2023-02-01T06:10:38;1.70;;;0.65;;
76599;SDS011;65489;52.048;6.090;2023-02-01T06:13:03;1.48;;;0.63;;
76599;SDS011;65489;52.048;6.090;2023-02-01T06:15:29;1.67;;;0.65;;
76599;SDS011;65489;52.048;6.090;2023-02-01T06:17:55;3.63;;;0.90;;
76599;SDS011;65489;52.048;6.090;2023-02-01T06:20:21;1.77;;;0.70;;
76599;SDS011;65489;52.048;6.090;2023-02-01T06:22:47;1.40;;;0.60;;
76599;SDS011;65489;52.048;6.090;2023-02-01T06:25:12;2.15;;;0.77;;
76599;SDS011;65489;52.048;6.090;2023-02-01T06:27:37;2.17;;;0.60;;
76599;SDS011;65489;52.048;6.090;2023-02-01T06:30:04;1.60;;;0.50;;
76599;SDS011;65489;52.048;6.090;2023-02-01T06:32:30;2.50;;;0.63;;
76599;SDS011;65489;52.048;6.090;2023-02-01T06:34:55;2.33;;;0.70;;
76599;SDS011;65489;52.048;6.090;2023-02-01T06:37:25;2.58;;;0.70;;
76599;SDS011;65489;52.048;6.090;2023-02-01T06:39:52;2.20;;;0.88;;
76599;SDS011;65489;52.048;6.090;2023-02-01T06:42:18;2.97;;;0.90;;
76599;SDS011;65489;52.048;6.090;2023-02-01T06:44:43;2.17;;;0.70;;
76599;SDS011;65489;52.048;6.090;2023-02-01T06:47:08;3.53;;;0.65;;
76599;SDS011;65489;52.048;6.090;2023-02-01T06:49:34;2.65;;;0.82;;
76599;SDS011;65489;52.048;6.090;2023-02-01T06:51:59;2.47;;;0.60;;
76599;SDS011;65489;52.048;6.090;2023-02-01T06:54:26;1.75;;;0.70;;
76599;SDS011;65489;52.048;6.090;2023-02-01T06:56:52;1.23;;;0.50;;
76599;SDS011;65489;52.048;6.090;2023-02-01T06:59:17;2.15;;;0.80;;
76599;SDS011;65489;52.048;6.090;2023-02-01T07:01:42;1.50;;;0.60;;
76599;SDS011;65489;52.048;6.090;2023-02-01T07:04:09;3.33;;;0.80;;
76599;SDS011;65489;52.048;6.090;2023-02-01T07:06:36;2.38;;;0.60;;
76599;SDS011;65489;52.048;6.090;2023-02-01T07:09:02;5.57;;;0.90;;
76599;SDS011;65489;52.048;6.090;2023-02-01T07:11:27;3.35;;;0.80;;
76599;SDS011;65489;52.048;6.090;2023-02-01T07:13:53;2.80;;;0.88;;
76599;SDS011;65489;52.048;6.090;2023-02-01T07:16:19;1.67;;;0.70;;
76599;SDS011;65489;52.048;6.090;2023-02-01T07:18:44;1.52;;;0.50;;
76599;SDS011;65489;52.048;6.090;2023-02-01T07:21:10;1.42;;;0.50;;
76599;SDS011;65489;52.048;6.090;2023-02-01T07:23:36;3.25;;;0.80;;
76599;SDS011;65489;52.048;6.090;2023-02-01T07:26:03;2.30;;;0.65;;
76599;SDS011;65489;52.048;6.090;2023-02-01T07:28:31;2.58;;;0.70;;
76599;SDS011;65489;52.048;6.090;2023-02-01T07:31:17;3.28;;;0.80;;
76599;SDS011;65489;52.048;6.090;2023-02-01T07:33:45;2.00;;;0.65;;
76599;SDS011;65489;52.048;6.090;2023-02-01T07:36:12;2.67;;;0.70;;
76599;SDS011;65489;52.048;6.090;2023-02-01T07:38:38;1.80;;;0.70;;
76599;SDS011;65489;52.048;6.090;2023-02-01T07:41:04;2.55;;;0.77;;
76599;SDS011;65489;52.048;6.090;2023-02-01T07:43:30;2.38;;;0.82;;
76599;SDS011;65489;52.048;6.090;2023-02-01T07:45:56;1.83;;;0.60;;
76599;SDS011;65489;52.048;6.090;2023-02-01T07:48:23;1.92;;;0.60;;
76599;SDS011;65489;52.048;6.090;2023-02-01T07:51:09;2.95;;;0.80;;
76599;SDS011;65489;52.048;6.090;2023-02-01T07:53:36;1.95;;;0.70;;
76599;SDS011;65489;52.048;6.090;2023-02-01T07:56:02;1.85;;;0.80;;
76599;SDS011;65489;52.048;6.090;2023-02-01T07:58:29;3.42;;;1.00;;
76599;SDS011;65489;52.048;6.090;2023-02-01T08:00:55;2.95;;;0.80;;
76599;SDS011;65489;52.048;6.090;2023-02-01T08:03:39;2.58;;;0.70;;
76599;SDS011;65489;52.048;6.090;2023-02-01T08:06:05;1.65;;;0.68;;
76599;SDS011;65489;52.048;6.090;2023-02-01T08:08:31;3.13;;;0.73;;
76599;SDS011;65489;52.048;6.090;2023-02-01T08:11:00;1.92;;;0.80;;
76599;SDS011;65489;52.048;6.090;2023-02-01T08:13:27;2.22;;;0.70;;
76599;SDS011;65489;52.048;6.090;2023-02-01T08:15:56;3.22;;;0.80;;
76599;SDS011;65489;52.048;6.090;2023-02-01T08:18:22;3.25;;;0.80;;
76599;SDS011;65489;52.048;6.090;2023-02-01T08:20:48;3.72;;;1.00;;
76599;SDS011;65489;52.048;6.090;2023-02-01T08:23:13;4.10;;;1.52;;
76599;SDS011;65489;52.048;6.090;2023-02-01T08:25:39;4.15;;;1.08;;
76599;SDS011;65489;52.048;6.090;2023-02-01T08:28:08;4.50;;;1.08;;
76599;SDS011;65489;52.048;6.090;2023-02-01T08:30:33;6.35;;;1.25;;
76599;SDS011;65489;52.048;6.090;2023-02-01T08:32:59;6.47;;;1.48;;
76599;SDS011;65489;52.048;6.090;2023-02-01T08:35:26;5.68;;;1.30;;
76599;SDS011;65489;52.048;6.090;2023-02-01T08:37:51;5.95;;;1.40;;
76599;SDS011;65489;52.048;6.090;2023-02-01T08:40:17;5.35;;;1.13;;
76599;SDS011;65489;52.048;6.090;2023-02-01T08:42:42;6.43;;;1.35;;
76599;SDS011;65489;52.048;6.090;2023-02-01T08:45:24;5.60;;;1.75;;
76599;SDS011;65489;52.048;6.090;2023-02-01T08:47:51;2.80;;;1.05;;
76599;SDS011;65489;52.048;6.090;2023-02-01T08:50:17;3.45;;;1.30;;
76599;SDS011;65489;52.048;6.090;2023-02-01T08:52:44;4.57;;;1.20;;
76599;SDS011;65489;52.048;6.090;2023-02-01T08:55:09;4.15;;;1.48;;
76599;SDS011;65489;52.048;6.090;2023-02-01T08:57:35;4.20;;;1.40;;
76599;SDS011;65489;52.048;6.090;2023-02-01T09:00:01;5.90;;;1.50;;
76599;SDS011;65489;52.048;6.090;2023-02-01T09:02:27;6.20;;;1.60;;
76599;SDS011;65489;52.048;6.090;2023-02-01T09:04:52;4.78;;;1.42;;
76599;SDS011;65489;52.048;6.090;2023-02-01T09:07:18;6.55;;;1.52;;
76599;SDS011;65489;52.048;6.090;2023-02-01T09:09:44;3.20;;;1.27;;
76599;SDS011;65489;52.048;6.090;2023-02-01T09:12:10;7.85;;;1.58;;
76599;SDS011;65489;52.048;6.090;2023-02-01T09:14:36;4.28;;;1.42;;
76599;SDS011;65489;52.048;6.090;2023-02-01T09:17:01;4.15;;;1.42;;
76599;SDS011;65489;52.048;6.090;2023-02-01T09:19:27;6.53;;;1.65;;
76599;SDS011;65489;52.048;6.090;2023-02-01T09:21:52;4.63;;;1.40;;
76599;SDS011;65489;52.048;6.090;2023-02-01T09:24:17;5.18;;;1.50;;
76599;SDS011;65489;52.048;6.090;2023-02-01T09:26:43;3.85;;;1.38;;
76599;SDS011;65489;52.048;6.090;2023-02-01T09:29:08;5.07;;;1.40;;
76599;SDS011;65489;52.048;6.090;2023-02-01T09:31:37;5.63;;;1.60;;
76599;SDS011;65489;52.048;6.090;2023-02-01T09:34:03;3.63;;;1.38;;
76599;SDS011;65489;52.048;6.090;2023-02-01T09:36:28;4.30;;;1.50;;
76599;SDS011;65489;52.048;6.090;2023-02-01T09:38:54;8.60;;;1.60;;
76599;SDS011;65489;52.048;6.090;2023-02-01T09:41:25;3.97;;;1.50;;
76599;SDS011;65489;52.048;6.090;2023-02-01T09:44:20;4.85;;;1.30;;
76599;SDS011;65489;52.048;6.090;2023-02-01T09:47:04;4.53;;;1.35;;
76599;SDS011;65489;52.048;6.090;2023-02-01T09:49:37;3.45;;;1.20;;
76599;SDS011;65489;52.048;6.090;2023-02-01T09:52:10;3.63;;;1.15;;
76599;SDS011;65489;52.048;6.090;2023-02-01T09:54:46;3.03;;;1.35;;
76599;SDS011;65489;52.048;6.090;2023-02-01T09:57:28;2.92;;;1.20;;
76599;SDS011;65489;52.048;6.090;2023-02-01T10:00:29;5.10;;;1.30;;
76599;SDS011;65489;52.048;6.090;2023-02-01T10:02:56;4.68;;;1.25;;
76599;SDS011;65489;52.048;6.090;2023-02-01T10:06:05;4.00;;;1.55;;
76599;SDS011;65489;52.048;6.090;2023-02-01T10:08:39;3.00;;;1.13;;
76599;SDS011;65489;52.048;6.090;2023-02-01T10:14:04;3.17;;;1.10;;
76599;SDS011;65489;52.048;6.090;2023-02-01T10:22:02;5.28;;;1.50;;
76599;SDS011;65489;52.048;6.090;2023-02-01T10:24:45;5.50;;;1.33;;
76599;SDS011;65489;52.048;6.090;2023-02-01T10:27:13;2.85;;;1.10;;
76599;SDS011;65489;52.048;6.090;2023-02-01T10:29:43;4.93;;;1.58;;
76599;SDS011;65489;52.048;6.090;2023-02-01T10:32:21;3.75;;;1.27;;
76599;SDS011;65489;52.048;6.090;2023-02-01T10:34:49;6.10;;;1.30;;
76599;SDS011;65489;52.048;6.090;2023-02-01T10:39:54;4.20;;;1.33;;
76599;SDS011;65489;52.048;6.090;2023-02-01T10:42:21;3.28;;;1.30;;
76599;SDS011;65489;52.048;6.090;2023-02-01T10:44:49;2.97;;;1.20;;
76599;SDS011;65489;52.048;6.090;2023-02-01T10:47:15;3.85;;;1.13;;
76599;SDS011;65489;52.048;6.090;2023-02-01T10:49:47;3.83;;;1.20;;
76599;SDS011;65489;52.048;6.090;2023-02-01T10:52:26;2.88;;;1.05;;
76599;SDS011;65489;52.048;6.090;2023-02-01T10:54:56;3.78;;;1.02;;
76599;SDS011;65489;52.048;6.090;2023-02-01T10:57:55;3.25;;;1.13;;
76599;SDS011;65489;52.048;6.090;2023-02-01T11:00:22;4.88;;;1.13;;
76599;SDS011;65489;52.048;6.090;2023-02-01T11:02:47;3.38;;;1.10;;
76599;SDS011;65489;52.048;6.090;2023-02-01T11:05:15;2.88;;;1.05;;
76599;SDS011;65489;52.048;6.090;2023-02-01T11:07:46;3.17;;;1.27;;
76599;SDS011;65489;52.048;6.090;2023-02-01T11:10:34;4.18;;;1.23;;
76599;SDS011;65489;52.048;6.090;2023-02-01T11:13:03;4.55;;;1.23;;
76599;SDS011;65489;52.048;6.090;2023-02-01T11:15:29;3.72;;;1.40;;
76599;SDS011;65489;52.048;6.090;2023-02-01T11:17:54;2.50;;;0.98;;
76599;SDS011;65489;52.048;6.090;2023-02-01T11:20:35;1.95;;;0.88;;
76599;SDS011;65489;52.048;6.090;2023-02-01T11:23:04;3.05;;;1.20;;
76599;SDS011;65489;52.048;6.090;2023-02-01T11:25:29;3.63;;;1.23;;
76599;SDS011;65489;52.048;6.090;2023-02-01T11:27:55;3.35;;;1.00;;
76599;SDS011;65489;52.048;6.090;2023-02-01T11:30:26;3.28;;;0.90;;
76599;SDS011;65489;52.048;6.090;2023-02-01T11:32:52;3.63;;;1.23;;
76599;SDS011;65489;52.048;6.090;2023-02-01T11:35:18;3.63;;;1.17;;
76599;SDS011;65489;52.048;6.090;2023-02-01T11:37:45;3.20;;;1.02;;
76599;SDS011;65489;52.048;6.090;2023-02-01T11:42:52;2.92;;;1.00;;
76599;SDS011;65489;52.048;6.090;2023-02-01T11:47:52;2.97;;;1.20;;
76599;SDS011;65489;52.048;6.090;2023-02-01T11:50:22;2.63;;;0.80;;
76599;SDS011;65489;52.048;6.090;2023-02-01T11:53:32;1.90;;;0.90;;
76599;SDS011;65489;52.048;6.090;2023-02-01T11:59:19;3.15;;;0.90;;
76599;SDS011;65489;52.048;6.090;2023-02-01T12:26:50;3.42;;;1.10;;
76599;SDS011;65489;52.048;6.090;2023-02-01T12:32:25;2.13;;;0.95;;
76599;SDS011;65489;52.048;6.090;2023-02-01T12:43:12;3.30;;;0.88;;
76599;SDS011;65489;52.048;6.090;2023-02-01T12:48:28;3.05;;;1.05;;
76599;SDS011;65489;52.048;6.090;2023-02-01T12:50:59;2.67;;;1.10;;
76599;SDS011;65489;52.048;6.090;2023-02-01T12:56:15;3.65;;;1.20;;
76599;SDS011;65489;52.048;6.090;2023-02-01T12:58:48;3.72;;;1.20;;
76599;SDS011;65489;52.048;6.090;2023-02-01T13:01:20;4.32;;;1.30;;
76599;SDS011;65489;52.048;6.090;2023-02-01T13:03:52;4.05;;;1.30;;
76599;SDS011;65489;52.048;6.090;2023-02-01T13:09:32;3.58;;;0.90;;
76599;SDS011;65489;52.048;6.090;2023-02-01T13:12:05;2.90;;;1.00;;
76599;SDS011;65489;52.048;6.090;2023-02-01T13:14:58;2.35;;;1.10;;
76599;SDS011;65489;52.048;6.090;2023-02-01T13:17:29;3.75;;;1.20;;
76599;SDS011;65489;52.048;6.090;2023-02-01T13:19:59;3.80;;;1.02;;
76599;SDS011;65489;52.048;6.090;2023-02-01T13:22:31;4.20;;;1.13;;
76599;SDS011;65489;52.048;6.090;2023-02-01T13:24:59;3.55;;;0.93;;
76599;SDS011;65489;52.048;6.090;2023-02-01T13:27:28;4.50;;;1.20;;
76599;SDS011;65489;52.048;6.090;2023-02-01T13:41:27;5.25;;;1.00;;
76599;SDS011;65489;52.048;6.090;2023-02-01T13:44:01;2.78;;;1.00;;
76599;SDS011;65489;52.048;6.090;2023-02-01T13:46:28;3.05;;;1.10;;
76599;SDS011;65489;52.048;6.090;2023-02-01T13:48:55;2.38;;;1.08;;
76599;SDS011;65489;52.048;6.090;2023-02-01T13:54:29;4.05;;;1.20;;
76599;SDS011;65489;52.048;6.090;2023-02-01T13:56:59;4.22;;;1.52;;
76599;SDS011;65489;52.048;6.090;2023-02-01T13:59:35;4.03;;;1.27;;
76599;SDS011;65489;52.048;6.090;2023-02-01T14:05:07;2.38;;;0.90;;
76599;SDS011;65489;52.048;6.090;2023-02-01T14:07:34;3.38;;;1.05;;
76599;SDS011;65489;52.048;6.090;2023-02-01T14:10:45;3.72;;;1.30;;
76599;SDS011;65489;52.048;6.090;2023-02-01T14:13:04;4.28;;;1.27;;
76599;SDS011;65489;52.048;6.090;2023-02-01T14:15:30;3.22;;;1.05;;
76599;SDS011;65489;52.048;6.090;2023-02-01T14:17:56;5.13;;;1.38;;
76599;SDS011;65489;52.048;6.090;2023-02-01T14:20:38;3.78;;;1.10;;
76599;SDS011;65489;52.048;6.090;2023-02-01T14:23:09;3.95;;;1.00;;
76599;SDS011;65489;52.048;6.090;2023-02-01T14:25:37;2.83;;;1.42;;
76599;SDS011;65489;52.048;6.090;2023-02-01T14:28:10;2.90;;;0.85;;
76599;SDS011;65489;52.048;6.090;2023-02-01T14:30:37;3.67;;;1.20;;
76599;SDS011;65489;52.048;6.090;2023-02-01T14:33:11;3.90;;;1.00;;
76599;SDS011;65489;52.048;6.090;2023-02-01T14:35:42;8.85;;;1.40;;
76599;SDS011;65489;52.048;6.090;2023-02-01T14:38:08;4.15;;;1.00;;
76599;SDS011;65489;52.048;6.090;2023-02-01T14:40:36;3.17;;;1.02;;
76599;SDS011;65489;52.048;6.090;2023-02-01T14:43:01;5.13;;;1.20;;
76599;SDS011;65489;52.048;6.090;2023-02-01T15:03:52;4.30;;;0.88;;
76599;SDS011;65489;52.048;6.090;2023-02-01T15:06:26;2.50;;;0.82;;
76599;SDS011;65489;52.048;6.090;2023-02-01T15:09:02;2.47;;;1.00;;
76599;SDS011;65489;52.048;6.090;2023-02-01T15:14:43;1.88;;;0.80;;
76599;SDS011;65489;52.048;6.090;2023-02-01T15:19:52;4.55;;;1.10;;
76599;SDS011;65489;52.048;6.090;2023-02-01T15:22:19;2.97;;;0.93;;
76599;SDS011;65489;52.048;6.090;2023-02-01T15:24:51;2.10;;;0.80;;
76599;SDS011;65489;52.048;6.090;2023-02-01T15:27:17;4.05;;;1.08;;
76599;SDS011;65489;52.048;6.090;2023-02-01T15:29:43;2.45;;;1.00;;
76599;SDS011;65489;52.048;6.090;2023-02-01T15:32:14;2.15;;;1.00;;
76599;SDS011;65489;52.048;6.090;2023-02-01T15:34:54;2.65;;;1.08;;
76599;SDS011;65489;52.048;6.090;2023-02-01T15:37:20;2.75;;;0.90;;
76599;SDS011;65489;52.048;6.090;2023-02-01T15:42:34;3.42;;;0.90;;
76599;SDS011;65489;52.048;6.090;2023-02-01T15:45:21;2.85;;;1.05;;
76599;SDS011;65489;52.048;6.090;2023-02-01T15:47:50;3.75;;;0.80;;
76599;SDS011;65489;52.048;6.090;2023-02-01T15:50:16;1.50;;;0.70;;
76599;SDS011;65489;52.048;6.090;2023-02-01T15:52:45;2.97;;;0.63;;
76599;SDS011;65489;52.048;6.090;2023-02-01T15:55:19;2.85;;;0.98;;
76599;SDS011;65489;52.048;6.090;2023-02-01T15:57:47;1.65;;;0.55;;
76599;SDS011;65489;52.048;6.090;2023-02-01T16:00:21;2.95;;;1.10;;
76599;SDS011;65489;52.048;6.090;2023-02-01T16:05:37;1.97;;;0.70;;
76599;SDS011;65489;52.048;6.090;2023-02-01T16:10:48;2.25;;;0.65;;
76599;SDS011;65489;52.048;6.090;2023-02-01T16:13:16;1.60;;;0.57;;
76599;SDS011;65489;52.048;6.090;2023-02-01T16:15:42;2.63;;;0.70;;
76599;SDS011;65489;52.048;6.090;2023-02-01T16:18:08;1.52;;;0.60;;
76599;SDS011;65489;52.048;6.090;2023-02-01T16:20:35;2.60;;;0.80;;
76599;SDS011;65489;52.048;6.090;2023-02-01T16:23:01;2.65;;;0.60;;
76599;SDS011;65489;52.048;6.090;2023-02-01T16:25:27;2.60;;;0.73;;
76599;SDS011;65489;52.048;6.090;2023-02-01T16:27:52;2.80;;;0.70;;
76599;SDS011;65489;52.048;6.090;2023-02-01T16:30:18;1.35;;;0.57;;
76599;SDS011;65489;52.048;6.090;2023-02-01T16:32:48;2.17;;;0.88;;
76599;SDS011;65489;52.048;6.090;2023-02-01T16:35:33;2.50;;;0.60;;
76599;SDS011;65489;52.048;6.090;2023-02-01T16:38:03;0.93;;;0.50;;
76599;SDS011;65489;52.048;6.090;2023-02-01T16:40:33;2.42;;;0.70;;
76599;SDS011;65489;52.048;6.090;2023-02-01T16:42:59;1.90;;;0.60;;
76599;SDS011;65489;52.048;6.090;2023-02-01T16:45:25;1.85;;;0.60;;
76599;SDS011;65489;52.048;6.090;2023-02-01T16:47:51;2.88;;;0.77;;
76599;SDS011;65489;52.048;6.090;2023-02-01T16:50:22;1.63;;;0.70;;
76599;SDS011;65489;52.048;6.090;2023-02-01T16:52:51;1.65;;;0.70;;
76599;SDS011;65489;52.048;6.090;2023-02-01T16:55:18;1.88;;;0.80;;
76599;SDS011;65489;52.048;6.090;2023-02-01T16:57:46;1.38;;;0.50;;
76599;SDS011;65489;52.048;6.090;2023-02-01T17:00:11;1.40;;;0.73;;
76599;SDS011;65489;52.048;6.090;2023-02-01T17:02:38;1.75;;;0.77;;
76599;SDS011;65489;52.048;6.090;2023-02-01T17:05:04;1.92;;;0.60;;
76599;SDS011;65489;52.048;6.090;2023-02-01T17:07:30;1.58;;;0.60;;
76599;SDS011;65489;52.048;6.090;2023-02-01T17:09:56;2.50;;;0.90;;
76599;SDS011;65489;52.048;6.090;2023-02-01T17:12:22;2.15;;;0.60;;
76599;SDS011;65489;52.048;6.090;2023-02-01T17:14:55;2.78;;;1.08;;
76599;SDS011;65489;52.048;6.090;2023-02-01T17:17:21;1.58;;;0.60;;
76599;SDS011;65489;52.048;6.090;2023-02-01T17:19:49;1.40;;;0.70;;
76599;SDS011;65489;52.048;6.090;2023-02-01T17:22:17;1.50;;;0.90;;
76599;SDS011;65489;52.048;6.090;2023-02-01T17:24:43;3.20;;;0.85;;
76599;SDS011;65489;52.048;6.090;2023-02-01T17:27:09;1.80;;;0.68;;
76599;SDS011;65489;52.048;6.090;2023-02-01T17:29:34;0.88;;;0.60;;
76599;SDS011;65489;52.048;6.090;2023-02-01T17:32:00;1.60;;;0.63;;